createdAt,value
2022-08-01T00:00:04.829Z,73.28
2022-08-01T00:02:32.146Z,73.34
2022-08-01T00:04:59.208Z,73.18
2022-08-01T00:07:25.776Z,72.95
2022-08-01T00:09:52.560Z,73.61
2022-08-01T00:12:19.106Z,73.74
2022-08-01T00:14:45.589Z,73.62
2022-08-01T00:17:12.154Z,73.40
2022-08-01T00:19:38.642Z,73.61
2022-08-01T00:22:05.319Z,73.85
2022-08-01T00:24:32.026Z,73.71
2022-08-01T00:26:58.504Z,74.01
2022-08-01T00:29:49.951Z,74.07
2022-08-01T00:32:11.496Z,73.72
2022-08-01T00:34:37.963Z,73.93
2022-08-01T00:37:04.434Z,73.63
2022-08-01T00:39:30.946Z,73.68
2022-08-01T00:42:01.770Z,75.80
2022-08-01T00:44:28.505Z,76.77
2022-08-01T00:46:55.096Z,77.32
2022-08-01T00:49:21.790Z,77.33
2022-08-01T00:51:49.293Z,77.17
2022-08-01T00:54:17.083Z,77.59
2022-08-01T00:56:44.609Z,77.02
2022-08-01T00:59:13.340Z,76.73
2022-08-01T01:01:41.073Z,75.92
2022-08-01T01:04:13.856Z,75.24
2022-08-01T01:07:03.949Z,74.25
2022-08-01T01:09:35.722Z,75.04
2022-08-01T01:12:23.144Z,74.23
2022-08-01T01:15:05.306Z,74.26
2022-08-01T01:17:53.004Z,74.38
2022-08-01T01:20:25.212Z,73.64
2022-08-01T01:23:02.690Z,73.86
2022-08-01T01:25:42.750Z,73.53
2022-08-01T01:28:24.280Z,73.97
2022-08-01T01:30:54.560Z,73.32
2022-08-01T01:33:23.378Z,73.21
2022-08-01T01:35:58.612Z,72.86
2022-08-01T01:38:30.241Z,72.93
2022-08-01T01:40:58.789Z,73.48
2022-08-01T01:43:28.709Z,73.75
2022-08-01T01:46:01.341Z,73.56
2022-08-01T01:48:29.693Z,73.89
2022-08-01T01:50:57.768Z,73.50
2022-08-01T01:53:26.092Z,73.81
2022-08-01T01:55:54.741Z,73.88
2022-08-01T01:58:21.624Z,73.89
2022-08-01T02:00:50.737Z,74.50
2022-08-01T02:03:19.585Z,74.47
2022-08-01T02:05:47.647Z,75.11
2022-08-01T02:08:17.373Z,75.33
2022-08-01T02:11:06.178Z,75.86
2022-08-01T02:13:37.298Z,75.82
2022-08-01T02:16:04.841Z,75.89
2022-08-01T02:18:31.684Z,75.92
2022-08-01T02:21:00.141Z,76.26
2022-08-01T02:23:33.213Z,76.24
2022-08-01T02:26:09.986Z,76.91
2022-08-01T02:28:44.751Z,77.41
2022-08-01T02:31:18.031Z,77.41
2022-08-01T02:33:49.435Z,77.74
2022-08-01T02:36:30.853Z,78.45
2022-08-01T02:39:01.491Z,78.58
2022-08-01T02:41:31.150Z,78.77
2022-08-01T02:44:03.110Z,79.38
2022-08-01T02:46:39.536Z,79.77
2022-08-01T02:49:10.154Z,79.73
2022-08-01T02:51:38.237Z,79.79
2022-08-01T02:54:07.467Z,80.03
2022-08-01T02:56:38.068Z,79.99
2022-08-01T02:59:08.211Z,79.90
2022-08-01T03:01:36.882Z,80.19
2022-08-01T03:04:06.209Z,80.23
2022-08-01T03:06:34.706Z,80.28
2022-08-01T03:09:03.688Z,80.38
2022-08-01T03:11:31.905Z,80.69
2022-08-01T03:14:02.631Z,80.36
2022-08-01T03:16:30.099Z,80.56
2022-08-01T03:18:58.165Z,80.74
2022-08-01T03:21:26.705Z,80.84
2022-08-01T03:23:58.108Z,80.52
2022-08-01T03:26:30.116Z,80.38
2022-08-01T03:29:00.200Z,80.35
2022-08-01T03:31:28.217Z,80.25
2022-08-01T03:33:54.805Z,80.42
2022-08-01T03:36:27.731Z,80.77
2022-08-01T03:38:58.039Z,80.92
2022-08-01T03:41:28.404Z,80.90
2022-08-01T03:44:15.989Z,80.76
2022-08-01T03:46:55.008Z,80.91
2022-08-01T03:49:26.777Z,81.16
2022-08-01T03:51:53.605Z,80.47
2022-08-01T03:54:24.568Z,80.29
2022-08-01T03:56:52.676Z,80.19
2022-08-01T03:59:21.441Z,80.15
2022-08-01T04:01:49.034Z,79.98
2022-08-01T04:04:15.994Z,80.31
2022-08-01T04:06:45.618Z,79.37
2022-08-01T04:09:13.752Z,79.28
2022-08-01T04:11:41.969Z,79.48
2022-08-01T04:14:09.343Z,79.00
2022-08-01T04:16:36.211Z,78.81
2022-08-01T04:19:03.148Z,77.91
2022-08-01T04:21:33.419Z,77.53
2022-08-01T04:24:08.361Z,77.52
2022-08-01T04:26:37.127Z,77.42
2022-08-01T04:29:06.128Z,77.17
2022-08-01T04:31:35.141Z,76.36
2022-08-01T04:34:03.736Z,76.47
2022-08-01T04:36:34.039Z,76.33
2022-08-01T04:39:02.953Z,76.45
2022-08-01T04:41:31.164Z,76.07
2022-08-01T04:44:00.290Z,75.99
2022-08-01T04:46:28.679Z,75.31
2022-08-01T04:48:55.910Z,74.89
2022-08-01T04:51:23.312Z,74.79
2022-08-01T04:53:51.888Z,73.27
2022-08-01T04:56:21.894Z,69.74
2022-08-01T04:58:48.605Z,66.38
2022-08-01T05:01:15.256Z,67.49
2022-08-01T05:03:41.805Z,68.93
2022-08-01T05:06:08.405Z,68.17
2022-08-01T05:08:34.888Z,65.88
2022-08-01T05:11:02.263Z,66.80
2022-08-01T05:13:28.975Z,66.39
2022-08-01T05:15:55.477Z,65.88
2022-08-01T05:18:26.059Z,59.44
2022-08-01T05:20:55.176Z,56.13
2022-08-01T05:23:43.124Z,54.92
2022-08-01T05:26:08.891Z,54.24
2022-08-01T05:28:36.101Z,53.26
2022-08-01T05:31:02.660Z,53.76
2022-08-01T05:33:29.113Z,57.22
2022-08-01T05:35:55.592Z,58.56
2022-08-01T05:38:22.065Z,59.63
2022-08-01T05:40:48.539Z,60.74
2022-08-01T05:43:15.006Z,60.33
2022-08-01T05:45:42.621Z,59.75
2022-08-01T05:48:09.295Z,59.93
2022-08-01T05:50:35.881Z,59.57
2022-08-01T05:53:02.613Z,58.50
2022-08-01T05:55:29.362Z,59.53
2022-08-01T05:57:55.850Z,58.36
2022-08-01T06:00:22.369Z,58.46
2022-08-01T06:02:48.881Z,56.78
2022-08-01T06:05:15.358Z,55.90
2022-08-01T06:07:41.886Z,57.15
2022-08-01T06:10:09.385Z,57.73
2022-08-01T06:12:36.536Z,57.66
2022-08-01T06:15:04.579Z,58.27
2022-08-01T06:17:31.033Z,58.41
2022-08-01T06:19:57.634Z,59.70
2022-08-01T06:22:24.331Z,58.79
2022-08-01T06:24:52.146Z,58.88
2022-08-01T06:27:21.606Z,58.03
2022-08-01T06:29:51.256Z,57.80
2022-08-01T06:32:27.146Z,58.20
2022-08-01T06:34:54.650Z,58.32
2022-08-01T06:37:21.116Z,57.23
2022-08-01T06:39:47.760Z,55.79
2022-08-01T06:42:15.843Z,54.63
2022-08-01T06:44:42.461Z,54.15
2022-08-01T06:47:08.956Z,53.51
2022-08-01T06:49:35.886Z,51.84
2022-08-01T06:52:02.536Z,53.63
2022-08-01T06:54:29.181Z,55.19
2022-08-01T06:56:55.652Z,55.37
2022-08-01T06:59:22.155Z,54.70
2022-08-01T07:01:48.636Z,54.24
2022-08-01T07:04:15.125Z,54.67
2022-08-01T07:06:41.581Z,55.03
2022-08-01T07:09:12.276Z,55.21
2022-08-01T07:11:40.819Z,55.82
2022-08-01T07:14:07.407Z,54.04
2022-08-01T07:16:33.990Z,51.30
2022-08-01T07:19:00.468Z,48.36
2022-08-01T07:21:40.571Z,43.68
2022-08-01T07:24:14.541Z,41.46
2022-08-01T07:26:53.197Z,42.54
2022-08-01T07:29:21.468Z,40.07
2022-08-01T07:31:47.925Z,40.46
2022-08-01T07:34:14.401Z,40.76
2022-08-01T07:36:40.845Z,40.27
2022-08-01T07:39:07.304Z,40.23
2022-08-01T07:41:53.376Z,39.89
2022-08-01T07:44:20.345Z,39.67
2022-08-01T07:46:46.805Z,39.22
2022-08-01T07:49:13.407Z,39.21
2022-08-01T07:51:39.946Z,41.05
2022-08-01T07:54:06.626Z,40.25
2022-08-01T07:56:33.097Z,39.33
2022-08-01T07:58:59.565Z,39.92
2022-08-01T08:01:26.122Z,39.67
2022-08-01T08:03:52.588Z,38.63
2022-08-01T08:06:19.197Z,38.35
2022-08-01T08:08:45.639Z,38.90
2022-08-01T08:11:12.119Z,38.17
2022-08-01T08:13:38.620Z,38.69
2022-08-01T08:16:05.098Z,38.20
2022-08-01T08:18:31.619Z,38.41
2022-08-01T08:20:58.086Z,38.93
2022-08-01T08:23:44.143Z,38.00
2022-08-01T08:26:13.634Z,37.84
2022-08-01T08:28:40.357Z,37.31
2022-08-01T08:31:07.819Z,38.62
2022-08-01T08:33:52.271Z,38.13
2022-08-01T08:36:18.781Z,40.16
2022-08-01T08:38:45.251Z,38.83
2022-08-01T08:41:15.060Z,38.42
2022-08-01T08:43:43.411Z,38.19
2022-08-01T08:46:11.871Z,38.69
2022-08-01T08:48:41.172Z,38.42
2022-08-01T08:51:09.746Z,41.11
2022-08-01T08:53:36.903Z,39.05
2022-08-01T08:56:07.423Z,36.85
2022-08-01T08:58:38.525Z,37.75
2022-08-01T09:01:09.659Z,37.48
2022-08-01T09:03:36.291Z,37.46
2022-08-01T09:06:04.509Z,37.65
2022-08-01T09:08:31.029Z,37.94
2022-08-01T09:10:57.840Z,37.40
2022-08-01T09:13:24.403Z,38.69
2022-08-01T09:15:55.856Z,38.78
2022-08-01T09:18:41.611Z,38.45
2022-08-01T09:21:18.831Z,39.98
2022-08-01T09:23:53.598Z,40.00
2022-08-01T09:26:41.735Z,40.32
2022-08-01T09:29:17.658Z,42.40
2022-08-01T09:32:07.827Z,41.16
2022-08-01T09:34:34.714Z,43.44
2022-08-01T09:37:03.657Z,41.82
2022-08-01T09:39:33.193Z,41.81
2022-08-01T09:42:02.423Z,39.67
2022-08-01T09:44:55.132Z,40.67
2022-08-01T09:47:23.371Z,42.95
2022-08-01T09:49:59.293Z,44.03
2022-08-01T09:52:29.278Z,42.07
2022-08-01T09:54:56.284Z,40.54
2022-08-01T09:57:23.509Z,40.92
2022-08-01T10:00:01.081Z,40.06
2022-08-01T10:02:34.288Z,41.24
2022-08-01T10:05:03.801Z,40.89
2022-08-01T10:07:43.712Z,39.32
2022-08-01T10:10:15.731Z,38.85
2022-08-01T10:12:44.306Z,40.18
2022-08-01T10:15:15.367Z,40.39
2022-08-01T10:17:50.275Z,39.57
2022-08-01T10:20:28.880Z,40.86
2022-08-01T10:23:02.343Z,39.35
2022-08-01T10:25:42.261Z,39.36
2022-08-01T10:28:21.646Z,41.84
2022-08-01T10:30:52.147Z,41.09
2022-08-01T10:33:51.865Z,41.33
2022-08-01T10:36:10.558Z,41.10
2022-08-01T10:38:37.853Z,37.87
2022-08-01T10:41:06.250Z,40.25
2022-08-01T10:43:33.535Z,37.41
2022-08-01T10:46:03.198Z,39.02
2022-08-01T10:48:39.513Z,39.30
2022-08-01T10:51:18.323Z,39.52
2022-08-01T10:53:54.174Z,39.69
2022-08-01T10:56:27.085Z,40.31
2022-08-01T10:59:06.373Z,39.18
2022-08-01T11:01:38.419Z,40.58
2022-08-01T11:04:16.385Z,41.32
2022-08-01T11:06:51.849Z,41.57
2022-08-01T11:09:36.095Z,40.39
2022-08-01T11:12:13.443Z,41.37
2022-08-01T11:14:59.451Z,41.38
2022-08-01T11:17:48.424Z,41.31
2022-08-01T11:20:17.606Z,40.07
2022-08-01T11:23:03.394Z,40.25
2022-08-01T11:26:05.226Z,38.81
2022-08-01T11:28:35.726Z,39.84
2022-08-01T11:31:03.141Z,38.64
2022-08-01T11:33:45.515Z,40.66
2022-08-01T11:36:12.904Z,41.03
2022-08-01T11:38:46.186Z,41.26
2022-08-01T11:41:38.479Z,41.69
2022-08-01T11:44:12.096Z,39.95
2022-08-01T11:46:57.479Z,38.59
2022-08-01T11:49:25.857Z,39.35
2022-08-01T11:52:26.134Z,39.27
2022-08-01T11:55:01.841Z,39.08
2022-08-01T11:57:35.752Z,38.88
2022-08-01T12:00:11.145Z,38.08
2022-08-01T12:06:30.292Z,39.93
2022-08-01T12:09:16.319Z,41.71
2022-08-01T12:11:42.950Z,40.38
2022-08-01T12:14:09.711Z,38.54
2022-08-01T12:16:36.212Z,40.36
2022-08-01T12:19:03.300Z,38.75
2022-08-01T12:21:29.872Z,38.54
2022-08-01T12:24:03.845Z,40.20
2022-08-01T12:26:41.320Z,39.12
2022-08-01T12:29:07.914Z,40.22
2022-08-01T12:31:37.423Z,40.43
2022-08-01T12:34:42.321Z,40.29
2022-08-01T12:37:09.242Z,38.67
2022-08-01T12:39:36.475Z,38.96
2022-08-01T12:42:11.361Z,37.77
2022-08-01T12:44:39.089Z,37.26
2022-08-01T12:47:07.979Z,34.65
2022-08-01T12:49:38.471Z,35.64
2022-08-01T12:52:09.156Z,36.50
2022-08-01T12:55:01.969Z,36.15
2022-08-01T12:57:28.774Z,35.73
2022-08-01T13:00:13.276Z,36.83
2022-08-01T13:02:40.549Z,36.87
2022-08-01T13:05:08.097Z,37.30
2022-08-01T13:07:45.428Z,35.66
2022-08-01T13:10:13.783Z,36.45
2022-08-01T13:12:42.021Z,36.55
2022-08-01T13:15:35.951Z,36.40
2022-08-01T13:18:27.791Z,35.91
2022-08-01T13:21:17.178Z,35.78
2022-08-01T13:24:12.304Z,35.63
2022-08-01T13:26:38.699Z,36.36
2022-08-01T13:29:06.632Z,37.41
2022-08-01T13:31:34.522Z,37.77
2022-08-01T13:34:01.267Z,37.88
2022-08-01T13:36:29.386Z,38.07
2022-08-01T13:39:14.689Z,38.74
2022-08-01T13:41:41.389Z,38.36
2022-08-01T13:44:09.852Z,39.07
2022-08-01T13:46:38.653Z,38.94
2022-08-01T13:49:15.109Z,40.60
2022-08-01T13:51:42.977Z,40.83
2022-08-01T13:54:09.751Z,42.21
2022-08-01T13:56:36.298Z,41.77
2022-08-01T13:59:03.124Z,41.72
2022-08-01T14:01:33.975Z,43.64
2022-08-01T14:04:01.009Z,43.02
2022-08-01T14:06:27.819Z,42.96
2022-08-01T14:08:54.507Z,42.67
2022-08-01T14:11:21.457Z,41.67
2022-08-01T14:13:48.107Z,41.15
2022-08-01T14:16:15.512Z,39.69
2022-08-01T14:18:44.221Z,39.20
2022-08-01T14:21:11.117Z,38.72
2022-08-01T14:23:37.768Z,36.71
2022-08-01T14:26:11.446Z,36.45
2022-08-01T14:28:39.846Z,38.93
2022-08-01T14:31:09.372Z,40.77
2022-08-01T14:33:35.926Z,41.97
2022-08-01T14:36:28.521Z,42.49
2022-08-01T14:38:49.940Z,43.98
2022-08-01T14:41:16.575Z,43.53
2022-08-01T14:43:43.480Z,43.67
2022-08-01T14:46:11.006Z,43.63
2022-08-01T14:48:37.740Z,42.29
2022-08-01T14:51:05.089Z,41.95
2022-08-01T14:53:34.350Z,40.92
2022-08-01T14:56:02.767Z,39.45
2022-08-01T14:58:29.581Z,39.69
2022-08-01T15:00:58.872Z,39.77
2022-08-01T15:03:26.038Z,39.75
2022-08-01T15:05:52.560Z,41.02
2022-08-01T15:08:19.003Z,41.63
2022-08-01T15:10:45.498Z,42.06
2022-08-01T15:13:11.953Z,43.00
2022-08-01T15:15:38.467Z,44.15
2022-08-01T15:18:05.268Z,43.36
2022-08-01T15:20:32.146Z,44.41
2022-08-01T15:22:59.414Z,43.87
2022-08-01T15:25:25.899Z,43.51
2022-08-01T15:28:07.024Z,44.15
2022-08-01T15:30:34.162Z,44.09
2022-08-01T15:33:00.661Z,43.29
2022-08-01T15:35:27.130Z,42.41
2022-08-01T15:37:53.593Z,43.33
2022-08-01T15:40:20.044Z,43.57
2022-08-01T15:42:46.495Z,43.37
2022-08-01T15:45:44.562Z,42.72
2022-08-01T15:48:03.957Z,43.32
2022-08-01T15:50:31.609Z,43.23
2022-08-01T15:52:58.110Z,44.10
2022-08-01T15:55:24.683Z,43.88
2022-08-01T15:57:51.196Z,42.78
2022-08-01T16:00:17.810Z,44.30
2022-08-01T16:02:44.277Z,44.49
2022-08-01T16:05:10.752Z,44.49
2022-08-01T16:07:37.261Z,44.71
2022-08-01T16:10:23.673Z,44.63
2022-08-01T16:12:50.125Z,45.30
2022-08-01T16:15:16.599Z,45.33
2022-08-01T16:17:44.645Z,45.51
2022-08-01T16:20:11.555Z,45.99
2022-08-01T16:22:38.051Z,45.27
2022-08-01T16:25:05.859Z,45.03
2022-08-01T16:27:32.388Z,45.29
2022-08-01T16:29:59.016Z,46.00
2022-08-01T16:32:28.748Z,46.33
2022-08-01T16:34:58.106Z,46.37
2022-08-01T16:37:25.337Z,47.04
2022-08-01T16:39:51.818Z,47.40
2022-08-01T16:42:18.297Z,48.04
2022-08-01T16:44:45.463Z,48.85
2022-08-01T16:47:12.170Z,48.08
2022-08-01T16:49:38.731Z,48.76
2022-08-01T16:52:05.533Z,49.46
2022-08-01T16:54:32.193Z,49.39
2022-08-01T16:57:08.589Z,49.91
2022-08-01T16:59:41.516Z,49.70
2022-08-01T17:02:09.894Z,49.63
2022-08-01T17:04:36.398Z,49.71
2022-08-01T17:07:03.046Z,49.59
2022-08-01T17:09:29.721Z,50.28
2022-08-01T17:11:56.235Z,50.52
2022-08-01T17:14:22.744Z,50.52
2022-08-01T17:16:49.436Z,51.30
2022-08-01T17:19:15.930Z,51.87
2022-08-01T17:21:42.764Z,51.64
2022-08-01T17:24:09.588Z,52.34
2022-08-01T17:26:36.093Z,52.27
2022-08-01T17:29:02.580Z,52.19
2022-08-01T17:31:29.082Z,52.15
2022-08-01T17:33:55.585Z,51.88
2022-08-01T17:36:22.397Z,51.88
2022-08-01T17:38:49.168Z,52.47
2022-08-01T17:41:15.661Z,53.37
2022-08-01T17:43:42.159Z,53.87
2022-08-01T17:46:08.769Z,54.12
2022-08-01T17:48:35.520Z,54.16
2022-08-01T17:51:02.087Z,54.50
2022-08-01T17:53:29.428Z,54.11
2022-08-01T17:55:58.517Z,54.27
2022-08-01T17:58:48.982Z,53.76
2022-08-01T18:01:14.142Z,53.75
2022-08-01T18:03:41.828Z,54.46
2022-08-01T18:06:17.528Z,54.88
2022-08-01T18:08:46.828Z,55.97
2022-08-01T18:11:14.260Z,57.26
2022-08-01T18:13:41.089Z,57.56
2022-08-01T18:16:09.129Z,58.32
2022-08-01T18:18:36.666Z,57.48
2022-08-01T18:21:03.458Z,59.31
2022-08-01T18:23:29.928Z,58.59
2022-08-01T18:25:56.486Z,57.47
2022-08-01T18:28:33.752Z,57.41
2022-08-01T18:31:03.768Z,57.01
2022-08-01T18:33:30.335Z,57.09
2022-08-01T18:36:03.535Z,57.09
2022-08-01T18:38:32.869Z,57.00
2022-08-01T18:41:00.548Z,56.78
2022-08-01T18:43:27.310Z,56.59
2022-08-01T18:45:53.828Z,56.92
2022-08-01T18:48:20.346Z,57.13
2022-08-01T18:50:46.847Z,57.09
2022-08-01T18:53:13.352Z,57.45
2022-08-01T18:55:39.801Z,59.03
2022-08-01T18:58:06.297Z,57.83
2022-08-01T19:00:32.793Z,58.12
2022-08-01T19:02:59.424Z,59.01
2022-08-01T19:05:25.856Z,58.75
2022-08-01T19:08:05.998Z,58.40
2022-08-01T19:10:35.026Z,59.57
2022-08-01T19:13:02.306Z,59.72
2022-08-01T19:15:28.822Z,60.44
2022-08-01T19:17:55.278Z,60.00
2022-08-01T19:20:21.754Z,59.72
2022-08-01T19:22:48.232Z,60.40
2022-08-01T19:25:15.703Z,60.11
2022-08-01T19:27:51.503Z,61.08
2022-08-01T19:30:19.156Z,61.38
2022-08-01T19:32:48.746Z,62.07
2022-08-01T19:35:16.975Z,63.07
2022-08-01T19:37:47.101Z,63.25
2022-08-01T19:40:26.607Z,63.03
2022-08-01T19:42:57.890Z,62.71
2022-08-01T19:45:29.488Z,62.06
2022-08-01T19:47:57.174Z,63.53
2022-08-01T19:50:27.611Z,63.64
2022-08-01T19:52:57.263Z,64.15
2022-08-01T19:55:24.800Z,64.51
2022-08-01T20:00:40.600Z,65.38
2022-08-01T20:03:08.943Z,64.98
2022-08-01T20:05:37.072Z,64.05
2022-08-01T20:08:03.762Z,63.68
2022-08-01T20:10:32.034Z,63.85
2022-08-01T20:12:58.774Z,63.88
2022-08-01T20:15:25.629Z,63.13
2022-08-01T20:17:52.149Z,64.02
2022-08-01T20:20:18.667Z,64.26
2022-08-01T20:22:47.430Z,65.34
2022-08-01T20:25:14.239Z,65.76
2022-08-01T20:27:44.373Z,65.75
2022-08-01T20:30:11.904Z,65.54
2022-08-01T20:32:40.297Z,65.43
2022-08-01T20:38:55.597Z,66.58
2022-08-01T20:41:25.891Z,66.96
2022-08-01T20:43:57.279Z,67.52
2022-08-01T20:46:28.068Z,67.60
2022-08-01T20:48:57.483Z,67.56
2022-08-01T20:51:58.081Z,69.25
2022-08-01T20:54:24.834Z,69.74
2022-08-01T20:57:09.116Z,69.11
2022-08-01T20:59:57.424Z,69.25
2022-08-01T21:02:35.842Z,69.20
2022-08-01T21:05:12.752Z,69.34
2022-08-01T21:08:03.810Z,69.34
2022-08-01T21:10:32.600Z,69.69
2022-08-01T21:13:02.182Z,70.75
2022-08-01T21:16:23.069Z,70.35
2022-08-01T21:18:39.644Z,70.75
2022-08-01T21:21:17.077Z,70.84
2022-08-01T21:24:06.338Z,71.04
2022-08-01T21:26:35.968Z,71.45
2022-08-01T21:29:06.813Z,71.60
2022-08-01T21:31:38.724Z,72.61
2022-08-01T21:34:08.165Z,72.96
2022-08-01T21:36:36.030Z,72.72
2022-08-01T21:39:05.376Z,72.48
2022-08-01T21:42:05.260Z,72.45
2022-08-01T21:44:18.972Z,73.05
2022-08-01T21:46:48.073Z,73.01
2022-08-01T21:49:14.707Z,73.24
2022-08-01T21:51:52.041Z,73.38
2022-08-01T21:54:34.197Z,73.53
2022-08-01T21:57:06.507Z,74.19
2022-08-01T21:59:32.939Z,73.83
2022-08-01T22:02:09.003Z,74.37
2022-08-01T22:04:56.287Z,75.00
2022-08-01T22:11:08.335Z,75.54
2022-08-01T22:14:00.053Z,76.03
2022-08-01T22:16:30.933Z,76.28
2022-08-01T22:18:57.744Z,76.09
2022-08-01T22:21:26.960Z,75.32
2022-08-01T22:28:10.236Z,76.96
2022-08-01T22:30:45.571Z,76.85
2022-08-01T22:33:17.155Z,77.41
2022-08-01T22:43:30.946Z,78.19
2022-08-01T22:46:09.804Z,78.19
2022-08-01T22:48:38.670Z,78.53
2022-08-01T22:51:19.504Z,79.79
2022-08-01T22:53:54.818Z,80.11
2022-08-01T22:56:22.545Z,79.65
2022-08-01T22:58:49.175Z,79.47
2022-08-01T23:01:22.118Z,79.59
2022-08-01T23:03:51.838Z,79.44
2022-08-01T23:06:24.042Z,79.34
2022-08-01T23:08:50.896Z,78.81
2022-08-01T23:11:20.130Z,78.23
2022-08-01T23:13:47.304Z,77.46
2022-08-01T23:16:17.423Z,77.38
2022-08-01T23:18:46.238Z,77.47
2022-08-01T23:21:13.171Z,77.65
2022-08-01T23:23:40.104Z,77.43
2022-08-01T23:26:07.379Z,77.83
2022-08-01T23:28:34.590Z,77.90
2022-08-01T23:34:48.792Z,79.10
2022-08-01T23:37:16.079Z,79.70
2022-08-01T23:39:44.310Z,79.08
2022-08-01T23:42:11.985Z,79.86
2022-08-01T23:44:39.281Z,79.86
2022-08-01T23:47:06.921Z,80.25
2022-08-01T23:49:33.734Z,80.60
2022-08-01T23:52:20.461Z,79.97
2022-08-01T23:54:47.407Z,80.10
2022-08-01T23:57:15.780Z,79.79
2022-08-01T23:59:52.954Z,80.29
